»·PEaware :: N89455 KBFL-KSBA

N89455 :: KBFL-KSBA

FLIGHT INFORMATION

Flight Status: Arrived
Operator: Privately registered:
United States
More flights under this callsign
Pilot: Dretana A. (25430)
Aircraft: BEECH AIRCRAFT BARON
(BE58)
More flights by this aircraft type
Origin: KBFL Meadows
United States
Destination: KSBA Santa Barbara Mun
United States
More flights between these airports :: More routes between these airports
Route: EHF V183 RZS
File this flight plan on PilotEdge
Remarks:
Altitude:
(Current/Filed)
10,000ft
Speed:
(Current/Filed)
180kts
Departed: 06-Apr-20 07:30 PM
Arrived: 06-Apr-20 08:13 PM
Distance/Time
Traveled:
72nm/0:43
Distance/Time
To Go:
Arrived

Flight Plot

Page will automatically refresh every two minutes.


Map Options




Map Legend


Flown Route
Filed Route
Departure Airport
Arrival Airport
Navaid (VOR, NDB)
Fix

Horizontal Profiles

Position Reports

Time Latitude Longitude Heading Altitude Ground
Speed
06-Apr-20 19:11 35.432645 -119.045624 137 509ft 0kts
06-Apr-20 19:12 35.432645 -119.045623 137 509ft 0kts
06-Apr-20 19:13 35.432645 -119.045623 137 509ft 0kts
06-Apr-20 19:14 35.432645 -119.045623 137 509ft 0kts
06-Apr-20 19:15 35.432644 -119.045622 137 509ft 0kts
06-Apr-20 19:16 35.432644 -119.045622 137 509ft 0kts
06-Apr-20 19:17 35.432644 -119.045622 137 509ft 0kts
06-Apr-20 19:18 35.432643 -119.045621 137 509ft 0kts
06-Apr-20 19:19 35.432643 -119.045621 137 509ft 0kts
06-Apr-20 19:20 35.432643 -119.045621 137 509ft 0kts
06-Apr-20 19:21 35.432642 -119.045620 137 509ft 0kts
06-Apr-20 19:22 35.432642 -119.045620 138 509ft 0kts
06-Apr-20 19:23 35.432642 -119.045620 138 509ft 0kts
06-Apr-20 19:24 35.432641 -119.045619 138 509ft 0kts
06-Apr-20 19:25 35.429986 -119.047357 215 509ft 14kts
06-Apr-20 19:26 35.426934 -119.045441 133 509ft 15kts
06-Apr-20 19:27 35.425910 -119.045758 231 509ft 0kts
06-Apr-20 19:28 35.425889 -119.045791 231 509ft 4kts
06-Apr-20 19:29 35.441008 -119.064773 314 935ft 135kts
06-Apr-20 19:30 35.465225 -119.096779 314 1872ft 138kts
06-Apr-20 19:31 35.491716 -119.131681 314 2950ft 139kts
06-Apr-20 19:32 35.514953 -119.167690 263 3936ft 138kts
06-Apr-20 19:33 35.480682 -119.186506 193 4978ft 144kts
06-Apr-20 19:34 35.440970 -119.196028 193 5978ft 146kts
06-Apr-20 19:35 35.400419 -119.205701 192 6964ft 152kts
06-Apr-20 19:36 35.358471 -119.218792 193 7970ft 158kts
06-Apr-20 19:37 35.314922 -119.229420 193 8980ft 159kts
06-Apr-20 19:38 35.273377 -119.246043 210 9908ft 159kts
06-Apr-20 19:39 35.230638 -119.274740 212 10000ft 180kts
06-Apr-20 19:40 35.186678 -119.305228 212 9992ft 183kts
06-Apr-20 19:41 35.141760 -119.336400 212 10007ft 188kts
06-Apr-20 19:42 35.095956 -119.368147 212 10004ft 189kts
06-Apr-20 19:43 35.049918 -119.400010 213 10005ft 189kts
06-Apr-20 19:44 35.004795 -119.431209 212 10001ft 185kts
06-Apr-20 19:45 34.960036 -119.462121 212 9985ft 184kts
06-Apr-20 19:46 34.915598 -119.492765 212 9987ft 182kts
06-Apr-20 19:47 34.872009 -119.522789 211 9997ft 178kts
06-Apr-20 19:48 34.828966 -119.552411 211 10006ft 177kts
06-Apr-20 19:49 34.785848 -119.582035 210 10004ft 178kts
06-Apr-20 19:50 34.742633 -119.611693 210 10002ft 179kts
06-Apr-20 19:51 34.699105 -119.641528 210 10000ft 179kts
06-Apr-20 19:52 34.655679 -119.671256 210 9999ft 179kts
06-Apr-20 19:53 34.611551 -119.701440 211 9606ft 187kts
06-Apr-20 19:54 34.567527 -119.731490 211 9007ft 174kts
06-Apr-20 19:55 34.525659 -119.760052 211 9001ft 173kts
06-Apr-20 19:56 34.482628 -119.789378 211 8573ft 183kts
06-Apr-20 19:57 34.438649 -119.794020 122 8015ft 180kts
06-Apr-20 19:58 34.438739 -119.735446 88 7657ft 177kts
06-Apr-20 19:59 34.402973 -119.708481 172 6695ft 161kts
06-Apr-20 20:00 34.359518 -119.699914 173 5713ft 155kts
06-Apr-20 20:01 34.317430 -119.691706 173 4734ft 151kts
06-Apr-20 20:02 34.276269 -119.687032 197 3763ft 146kts
06-Apr-20 20:03 34.264172 -119.656560 46 3034ft 147kts
06-Apr-20 20:04 34.294867 -119.625499 4 2988ft 144kts
06-Apr-20 20:05 34.329023 -119.649067 323 2989ft 143kts
06-Apr-20 20:06 34.361610 -119.676533 323 2988ft 142kts
06-Apr-20 20:07 34.394402 -119.704220 323 2799ft 149kts
06-Apr-20 20:08 34.424473 -119.733666 303 1830ft 127kts
06-Apr-20 20:09 34.429305 -119.772413 269 1072ft 111kts
06-Apr-20 20:10 34.428422 -119.809479 268 475ft 104kts
06-Apr-20 20:11 34.427783 -119.841201 269 14ft 77kts
06-Apr-20 20:12 34.426912 -119.851844 174 12ft 0kts
06-Apr-20 20:13 34.426912 -119.851844 174 12ft 0kts

Navigation Log

Ident Type
Flight plan parsing failed, navigation log unavailable